地図

経路データ

SID SEASON NUMBER BASIN SUBBASIN NAME ISO_TIME NATURE LAT LON WMO_WIND WMO_PRES WMO_AGENCY TRACK_TYPE DIST2LAND LANDFALL IFLAG USA_AGENCY USA_ATCF_ID USA_LAT USA_LON USA_RECORD USA_STATUS USA_WIND USA_PRES USA_SSHS USA_R34_NE USA_R34_SE USA_R34_SW USA_R34_NW USA_R50_NE USA_R50_SE USA_R50_SW USA_R50_NW USA_R64_NE USA_R64_SE USA_R64_SW USA_R64_NW USA_POCI USA_ROCI USA_RMW USA_EYE TOKYO_LAT TOKYO_LON TOKYO_GRADE TOKYO_WIND TOKYO_PRES TOKYO_R50_DIR TOKYO_R50_LONG TOKYO_R50_SHORT TOKYO_R30_DIR TOKYO_R30_LONG TOKYO_R30_SHORT TOKYO_LAND CMA_LAT CMA_LON CMA_CAT CMA_WIND CMA_PRES HKO_LAT HKO_LON HKO_CAT HKO_WIND HKO_PRES NEWDELHI_LAT NEWDELHI_LON NEWDELHI_GRADE NEWDELHI_WIND NEWDELHI_PRES NEWDELHI_CI NEWDELHI_DP NEWDELHI_POCI REUNION_LAT REUNION_LON REUNION_TYPE REUNION_WIND REUNION_PRES REUNION_TNUM REUNION_CI REUNION_RMW REUNION_R34_NE REUNION_R34_SE REUNION_R34_SW REUNION_R34_NW REUNION_R50_NE REUNION_R50_SE REUNION_R50_SW REUNION_R50_NW REUNION_R64_NE REUNION_R64_SE REUNION_R64_SW REUNION_R64_NW BOM_LAT BOM_LON BOM_TYPE BOM_WIND BOM_PRES BOM_TNUM BOM_CI BOM_RMW BOM_R34_NE BOM_R34_SE BOM_R34_SW BOM_R34_NW BOM_R50_NE BOM_R50_SE BOM_R50_SW BOM_R50_NW BOM_R64_NE BOM_R64_SE BOM_R64_SW BOM_R64_NW BOM_ROCI BOM_POCI BOM_EYE BOM_POS_METHOD BOM_PRES_METHOD NADI_LAT NADI_LON NADI_CAT NADI_WIND NADI_PRES WELLINGTON_LAT WELLINGTON_LON WELLINGTON_WIND WELLINGTON_PRES DS824_LAT DS824_LON DS824_STAGE DS824_WIND DS824_PRES TD9636_LAT TD9636_LON TD9636_STAGE TD9636_WIND TD9636_PRES TD9635_LAT TD9635_LON TD9635_WIND TD9635_PRES TD9635_ROCI NEUMANN_LAT NEUMANN_LON NEUMANN_CLASS NEUMANN_WIND NEUMANN_PRES MLC_LAT MLC_LON MLC_CLASS MLC_WIND MLC_PRES USA_GUST BOM_GUST BOM_GUST_PER REUNION_GUST REUNION_GUST_PER USA_SEAHGT USA_SEARAD_NE USA_SEARAD_SE USA_SEARAD_SW USA_SEARAD_NW STORM_SPEED STORM_DIR
1981214N16133 1981 59 WP MM NOT_NAMED 1981-08-02 00:00:00 TS 16.4000 133.000 main 935 935 __O___________ -1 16.4000 133.000 1 23 1003 6 57
1981214N16133 1981 59 WP MM NOT_NAMED 1981-08-02 03:00:00 TS 16.5501 133.242 main 964 964 __P___________ -1 16.5501 133.242 1 23 1001 6 58
1981214N16133 1981 59 WP MM NOT_NAMED 1981-08-02 06:00:00 TS 16.7000 133.500 main 998 998 __O___________ -1 16.7000 133.500 1 23 1000 6 60
1981214N16133 1981 59 WP MM NOT_NAMED 1981-08-02 09:00:00 TS 16.8500 133.785 main 1031 1031 __P___________ -1 16.8500 133.785 1 23 1000 6 62
1981214N16133 1981 59 WP MM NOT_NAMED 1981-08-02 12:00:00 TS 17.0000 134.100 main 1070 1070 __O___________ -1 17.0000 134.100 1 23 1000 7 64
1981214N16133 1981 59 WP MM NOT_NAMED 1981-08-02 15:00:00 TS 17.1575 134.443 main 1108 1108 __P___________ -1 17.1575 134.443 1 23 1000 7 66
1981214N16133 1981 59 WP MM NOT_NAMED 1981-08-02 18:00:00 TS 17.3000 134.800 main 1151 1151 __O___________ -1 17.3000 134.800 1 23 1000 7 69
1981214N16133 1981 59 WP MM NOT_NAMED 1981-08-02 21:00:00 TS 17.3996 135.098 main 1184 1184 __P___________ -1 17.3996 135.098 1 26 999 7 73
1981214N16133 1981 59 WP MM NOT_NAMED 1981-08-03 00:00:00 TS 17.5000 135.500 main 1227 1227 __O___________ -1 17.5000 135.500 1 29 998 10 78
1981214N16133 1981 59 WP MM NOT_NAMED 1981-08-03 03:00:00 TS 17.6203 136.155 main 1298 1298 __P___________ -1 17.6203 136.155 1 29 996 14 77
1981214N16133 1981 59 WP MM NOT_NAMED 1981-08-03 06:00:00 TS 17.8000 136.900 main 1375 1375 __O___________ -1 17.8000 136.900 1 29 995 14 72
1981214N16133 1981 59 WP MM NOT_NAMED 1981-08-03 09:00:00 TS 18.0468 137.521 main 1442 1442 __P___________ -1 18.0468 137.521 1 29 993 14 64
1981214N16133 1981 59 WP MM NOT_NAMED 1981-08-03 12:00:00 TS 18.4000 138.200 main 1528 1528 __O___________ -1 18.4000 138.200 1 29 992 17 61
1981214N16133 1981 59 WP MM NOT_NAMED 1981-08-03 15:00:00 TS 18.8477 139.070 main 1603 1587 __P___________ -1 18.8477 139.070 1 29 992 20 60
1981214N16133 1981 59 WP MM NOT_NAMED 1981-08-03 18:00:00 TS 19.4000 140.000 main 1592 1576 __O___________ -1 19.4000 140.000 1 29 992 21 56
1981214N16133 1981 59 WP MM NOT_NAMED 1981-08-03 21:00:00 TS 20.0045 140.858 main 1579 1532 __P___________ -1 20.0045 140.858 1 29 992 21 51
1981214N16133 1981 59 WP MM NOT_NAMED 1981-08-04 00:00:00 TS 20.7000 141.700 main 1532 1493 __O___________ -1 20.7000 141.700 1 29 992 22 47
1981214N16133 1981 59 WP MM NOT_NAMED 1981-08-04 03:00:00 TS 21.4697 142.558 main 1487 1444 __P___________ -1 21.4697 142.558 1 29 991 23 45
1981214N16133 1981 59 WP MM NOT_NAMED 1981-08-04 06:00:00 TS 22.3000 143.400 main 1444 1389 __O___________ -1 22.3000 143.400 1 29 991 22 43
1981214N16133 1981 59 WP MM NOT_NAMED 1981-08-04 09:00:00 TS 23.0812 144.159 main 1381 1319 __P___________ -1 23.0812 144.159 1 29 990 23 41
1981214N16133 1981 59 WP MM NOT_NAMED 1981-08-04 12:00:00 TS 24.0000 145.000 main 1312 1240 __O___________ -1 24.0000 145.000 1 29 990 27 40
1981214N16133 1981 59 WP MM NOT_NAMED 1981-08-04 15:00:00 TS 25.1896 146.068 main 1234 1175 __P___________ -1 25.1896 146.068 1 29 990 33 40
1981214N16133 1981 59 WP MM NOT_NAMED 1981-08-04 18:00:00 TS 26.5000 147.300 main 1171 1136 __O___________ -1 26.5000 147.300 1 29 990 35 42
1981214N16133 1981 59 WP MM NOT_NAMED 1981-08-04 21:00:00 TS 27.7883 148.671 main 1138 1129 __P___________ -1 27.7883 148.671 1 29 990 35 44
1981214N16133 1981 59 WP MM NOT_NAMED 1981-08-05 00:00:00 TS 29.0000 150.000 main 1133 1131 __O___________ -1 29.0000 150.000 1 29 990 31 43
1981214N16133 1981 59 WP MM NOT_NAMED 1981-08-05 03:00:00 TS 30.0353 151.057 main 1142 1136 __P___________ -1 30.0353 151.057 1 29 991 27 41
1981214N16133 1981 59 WP MM NOT_NAMED 1981-08-05 06:00:00 TS 31.0000 152.000 main 1153 1153 __O___________ -1 31.0000 152.000 1 29 992 26 41
1981214N16133 1981 59 WP MM NOT_NAMED 1981-08-05 09:00:00 TS 31.9619 153.011 main 1187 1187 __P___________ -1 31.9619 153.011 1 29 992 26 40
1981214N16133 1981 59 WP MM NOT_NAMED 1981-08-05 12:00:00 TS 33.0000 154.000 main 1236 1236 __O___________ -1 33.0000 154.000 1 29 992 28 36
1981214N16133 1981 59 WP MM NOT_NAMED 1981-08-05 15:00:00 TS 34.2013 154.953 main 1286 1237 __P___________ -1 34.2013 154.953 1 29 992 30 32
1981214N16133 1981 59 WP MM NOT_NAMED 1981-08-05 18:00:00 TS 35.5000 155.900 main 1234 __O___________ -1 35.5000 155.900 1 29 992 30 31

デジタル台風データ・検索

IBTrACS Databaseについて

本データベースは、米国NOAAが公開する1842年以降の世界の熱帯低気圧のベストトラックデータアーカイブInternational Best Track Archive for Climate Stewardship (IBTrACS)を、ウェブで閲覧しやすい形式に変換したものです。

最終更新日:2021-10-27